sensor_id;sensor_type;location;lat;lon;timestamp;temperature;humidity
3602;DHT22;1815;50.950;6.920;2023-09-30T00:00:43;15.50;99.90
3602;DHT22;1815;50.950;6.920;2023-09-30T00:03:08;15.50;99.90
3602;DHT22;1815;50.950;6.920;2023-09-30T00:05:37;15.40;99.90
3602;DHT22;1815;50.950;6.920;2023-09-30T00:08:03;15.40;99.90
3602;DHT22;1815;50.950;6.920;2023-09-30T00:10:29;15.40;99.90
3602;DHT22;1815;50.950;6.920;2023-09-30T00:12:56;15.40;99.90
3602;DHT22;1815;50.950;6.920;2023-09-30T00:15:22;15.30;99.90
3602;DHT22;1815;50.950;6.920;2023-09-30T00:17:48;15.30;99.90
3602;DHT22;1815;50.950;6.920;2023-09-30T00:20:13;15.30;99.90
3602;DHT22;1815;50.950;6.920;2023-09-30T00:22:43;15.30;99.90
3602;DHT22;1815;50.950;6.920;2023-09-30T00:25:09;15.30;99.90
3602;DHT22;1815;50.950;6.920;2023-09-30T00:27:36;15.30;99.90
3602;DHT22;1815;50.950;6.920;2023-09-30T00:30:03;15.20;99.90
3602;DHT22;1815;50.950;6.920;2023-09-30T00:32:28;15.20;99.90
3602;DHT22;1815;50.950;6.920;2023-09-30T00:34:54;15.20;99.90
3602;DHT22;1815;50.950;6.920;2023-09-30T00:37:20;15.20;99.90
3602;DHT22;1815;50.950;6.920;2023-09-30T00:39:46;15.20;99.90
3602;DHT22;1815;50.950;6.920;2023-09-30T00:42:12;15.20;99.90
3602;DHT22;1815;50.950;6.920;2023-09-30T00:44:38;15.20;99.90
3602;DHT22;1815;50.950;6.920;2023-09-30T00:47:04;15.20;99.90
3602;DHT22;1815;50.950;6.920;2023-09-30T00:49:30;15.30;99.90
3602;DHT22;1815;50.950;6.920;2023-09-30T00:51:57;15.30;99.90
3602;DHT22;1815;50.950;6.920;2023-09-30T00:54:24;15.30;99.90
3602;DHT22;1815;50.950;6.920;2023-09-30T00:56:51;15.30;99.90
3602;DHT22;1815;50.950;6.920;2023-09-30T00:59:18;15.30;99.90
3602;DHT22;1815;50.950;6.920;2023-09-30T01:01:45;15.30;99.90
3602;DHT22;1815;50.950;6.920;2023-09-30T01:04:12;15.30;99.90
3602;DHT22;1815;50.950;6.920;2023-09-30T01:06:38;15.30;99.90
3602;DHT22;1815;50.950;6.920;2023-09-30T01:09:04;15.30;99.90
3602;DHT22;1815;50.950;6.920;2023-09-30T01:11:31;15.30;99.90
3602;DHT22;1815;50.950;6.920;2023-09-30T01:13:56;15.30;99.90
3602;DHT22;1815;50.950;6.920;2023-09-30T01:16:22;15.30;99.90
3602;DHT22;1815;50.950;6.920;2023-09-30T01:18:49;15.30;99.90
3602;DHT22;1815;50.950;6.920;2023-09-30T01:21:15;15.30;99.90
3602;DHT22;1815;50.950;6.920;2023-09-30T01:23:41;15.30;99.90
3602;DHT22;1815;50.950;6.920;2023-09-30T01:26:12;15.30;99.90
3602;DHT22;1815;50.950;6.920;2023-09-30T01:28:38;15.30;99.90
3602;DHT22;1815;50.950;6.920;2023-09-30T01:31:05;15.30;99.90
3602;DHT22;1815;50.950;6.920;2023-09-30T01:33:31;15.30;99.90
3602;DHT22;1815;50.950;6.920;2023-09-30T01:35:58;15.30;99.90
3602;DHT22;1815;50.950;6.920;2023-09-30T01:38:24;15.30;99.90
3602;DHT22;1815;50.950;6.920;2023-09-30T01:40:49;15.30;99.90
3602;DHT22;1815;50.950;6.920;2023-09-30T01:43:15;15.30;99.90
3602;DHT22;1815;50.950;6.920;2023-09-30T01:45:42;15.30;99.90
3602;DHT22;1815;50.950;6.920;2023-09-30T01:48:09;15.30;99.90
3602;DHT22;1815;50.950;6.920;2023-09-30T01:50:38;15.30;99.90
3602;DHT22;1815;50.950;6.920;2023-09-30T01:53:05;15.30;99.90
3602;DHT22;1815;50.950;6.920;2023-09-30T01:55:38;15.30;99.90
3602;DHT22;1815;50.950;6.920;2023-09-30T01:58:03;15.30;99.90
3602;DHT22;1815;50.950;6.920;2023-09-30T02:00:29;15.30;99.90
3602;DHT22;1815;50.950;6.920;2023-09-30T02:02:56;15.30;99.90
3602;DHT22;1815;50.950;6.920;2023-09-30T02:05:22;15.30;99.90
3602;DHT22;1815;50.950;6.920;2023-09-30T02:07:50;15.30;99.90
3602;DHT22;1815;50.950;6.920;2023-09-30T02:10:17;15.30;99.90
3602;DHT22;1815;50.950;6.920;2023-09-30T02:12:44;15.30;99.90
3602;DHT22;1815;50.950;6.920;2023-09-30T02:15:12;15.30;99.90
3602;DHT22;1815;50.950;6.920;2023-09-30T02:17:38;15.30;99.90
3602;DHT22;1815;50.950;6.920;2023-09-30T02:20:04;15.30;99.90
3602;DHT22;1815;50.950;6.920;2023-09-30T02:22:33;15.30;99.90
3602;DHT22;1815;50.950;6.920;2023-09-30T02:24:58;15.20;99.90
3602;DHT22;1815;50.950;6.920;2023-09-30T02:27:24;15.20;99.90
3602;DHT22;1815;50.950;6.920;2023-09-30T02:29:50;15.20;99.90
3602;DHT22;1815;50.950;6.920;2023-09-30T02:32:16;15.20;99.90
3602;DHT22;1815;50.950;6.920;2023-09-30T02:34:42;15.20;99.90
3602;DHT22;1815;50.950;6.920;2023-09-30T02:37:09;15.10;99.90
3602;DHT22;1815;50.950;6.920;2023-09-30T02:39:36;15.10;99.90
3602;DHT22;1815;50.950;6.920;2023-09-30T02:42:03;15.10;99.90
3602;DHT22;1815;50.950;6.920;2023-09-30T02:44:29;15.10;99.90
3602;DHT22;1815;50.950;6.920;2023-09-30T02:46:55;15.10;99.90
3602;DHT22;1815;50.950;6.920;2023-09-30T02:49:21;15.00;99.90
3602;DHT22;1815;50.950;6.920;2023-09-30T02:51:47;15.00;99.90
3602;DHT22;1815;50.950;6.920;2023-09-30T02:54:14;15.00;99.90
3602;DHT22;1815;50.950;6.920;2023-09-30T02:56:42;15.00;99.90
3602;DHT22;1815;50.950;6.920;2023-09-30T02:59:07;15.00;99.90
3602;DHT22;1815;50.950;6.920;2023-09-30T03:01:33;14.90;99.90
3602;DHT22;1815;50.950;6.920;2023-09-30T03:03:59;15.00;99.90
3602;DHT22;1815;50.950;6.920;2023-09-30T03:06:26;14.90;99.90
3602;DHT22;1815;50.950;6.920;2023-09-30T03:08:52;14.90;99.90
3602;DHT22;1815;50.950;6.920;2023-09-30T03:11:18;14.90;99.90
3602;DHT22;1815;50.950;6.920;2023-09-30T03:13:45;14.90;99.90
3602;DHT22;1815;50.950;6.920;2023-09-30T03:16:11;14.90;99.90
3602;DHT22;1815;50.950;6.920;2023-09-30T03:18:37;14.90;99.90
3602;DHT22;1815;50.950;6.920;2023-09-30T03:21:13;14.90;99.90
3602;DHT22;1815;50.950;6.920;2023-09-30T03:23:39;14.90;99.90
3602;DHT22;1815;50.950;6.920;2023-09-30T03:26:05;14.90;99.90
3602;DHT22;1815;50.950;6.920;2023-09-30T03:28:36;14.90;99.90
3602;DHT22;1815;50.950;6.920;2023-09-30T03:31:03;14.90;99.90
3602;DHT22;1815;50.950;6.920;2023-09-30T03:33:34;14.90;99.90
3602;DHT22;1815;50.950;6.920;2023-09-30T03:36:00;14.90;99.90
3602;DHT22;1815;50.950;6.920;2023-09-30T03:38:29;14.80;99.90
3602;DHT22;1815;50.950;6.920;2023-09-30T03:40:55;14.80;99.90
3602;DHT22;1815;50.950;6.920;2023-09-30T03:43:23;14.80;99.90
3602;DHT22;1815;50.950;6.920;2023-09-30T03:45:48;14.70;99.90
3602;DHT22;1815;50.950;6.920;2023-09-30T03:48:15;14.70;99.90
3602;DHT22;1815;50.950;6.920;2023-09-30T03:50:42;14.70;99.90
3602;DHT22;1815;50.950;6.920;2023-09-30T03:53:08;14.60;99.90
3602;DHT22;1815;50.950;6.920;2023-09-30T03:55:35;14.60;99.90
3602;DHT22;1815;50.950;6.920;2023-09-30T03:58:00;14.60;99.90
3602;DHT22;1815;50.950;6.920;2023-09-30T04:00:28;14.50;99.90
3602;DHT22;1815;50.950;6.920;2023-09-30T04:02:54;14.60;99.90
3602;DHT22;1815;50.950;6.920;2023-09-30T04:05:24;14.50;99.90
3602;DHT22;1815;50.950;6.920;2023-09-30T04:07:57;14.50;99.90
3602;DHT22;1815;50.950;6.920;2023-09-30T04:10:23;14.50;99.90
3602;DHT22;1815;50.950;6.920;2023-09-30T04:12:49;14.50;99.90
3602;DHT22;1815;50.950;6.920;2023-09-30T04:15:15;14.50;99.90
3602;DHT22;1815;50.950;6.920;2023-09-30T04:17:41;14.50;99.90
3602;DHT22;1815;50.950;6.920;2023-09-30T04:20:08;14.50;99.90
3602;DHT22;1815;50.950;6.920;2023-09-30T04:22:36;14.50;99.90
3602;DHT22;1815;50.950;6.920;2023-09-30T04:25:03;14.50;99.90
3602;DHT22;1815;50.950;6.920;2023-09-30T04:27:34;14.50;99.90
3602;DHT22;1815;50.950;6.920;2023-09-30T04:29:59;14.50;99.90
3602;DHT22;1815;50.950;6.920;2023-09-30T04:32:26;14.40;99.90
3602;DHT22;1815;50.950;6.920;2023-09-30T04:34:53;14.40;99.90
3602;DHT22;1815;50.950;6.920;2023-09-30T04:37:19;14.40;99.90
3602;DHT22;1815;50.950;6.920;2023-09-30T04:39:44;14.40;99.90
3602;DHT22;1815;50.950;6.920;2023-09-30T04:42:10;14.40;99.90
3602;DHT22;1815;50.950;6.920;2023-09-30T04:44:37;14.40;99.90
3602;DHT22;1815;50.950;6.920;2023-09-30T04:47:04;14.40;99.90
3602;DHT22;1815;50.950;6.920;2023-09-30T04:49:30;14.40;99.90
3602;DHT22;1815;50.950;6.920;2023-09-30T04:51:56;14.40;99.90
3602;DHT22;1815;50.950;6.920;2023-09-30T04:54:22;14.40;99.90
3602;DHT22;1815;50.950;6.920;2023-09-30T04:56:47;14.40;99.90
3602;DHT22;1815;50.950;6.920;2023-09-30T04:59:13;14.40;99.90
3602;DHT22;1815;50.950;6.920;2023-09-30T05:01:39;14.40;99.90
3602;DHT22;1815;50.950;6.920;2023-09-30T05:04:05;14.40;99.90
3602;DHT22;1815;50.950;6.920;2023-09-30T05:06:32;14.30;99.90
3602;DHT22;1815;50.950;6.920;2023-09-30T05:08:58;14.30;99.90
3602;DHT22;1815;50.950;6.920;2023-09-30T05:11:24;14.30;99.90
3602;DHT22;1815;50.950;6.920;2023-09-30T05:13:50;14.30;99.90
3602;DHT22;1815;50.950;6.920;2023-09-30T05:16:17;14.30;99.90
3602;DHT22;1815;50.950;6.920;2023-09-30T05:18:43;14.20;99.90
3602;DHT22;1815;50.950;6.920;2023-09-30T05:21:09;14.20;99.90
3602;DHT22;1815;50.950;6.920;2023-09-30T05:23:37;14.20;99.90
3602;DHT22;1815;50.950;6.920;2023-09-30T05:26:03;14.20;99.90
3602;DHT22;1815;50.950;6.920;2023-09-30T05:28:29;14.20;99.90
3602;DHT22;1815;50.950;6.920;2023-09-30T05:30:55;14.20;99.90
3602;DHT22;1815;50.950;6.920;2023-09-30T05:33:21;14.30;99.90
3602;DHT22;1815;50.950;6.920;2023-09-30T05:35:48;14.30;99.90
3602;DHT22;1815;50.950;6.920;2023-09-30T05:38:13;14.30;99.90
3602;DHT22;1815;50.950;6.920;2023-09-30T05:40:39;14.30;99.90
3602;DHT22;1815;50.950;6.920;2023-09-30T05:43:07;14.30;99.90
3602;DHT22;1815;50.950;6.920;2023-09-30T05:45:33;14.30;99.90
3602;DHT22;1815;50.950;6.920;2023-09-30T05:48:04;14.30;99.90
3602;DHT22;1815;50.950;6.920;2023-09-30T05:50:35;14.40;99.90
3602;DHT22;1815;50.950;6.920;2023-09-30T05:53:02;14.40;99.90
3602;DHT22;1815;50.950;6.920;2023-09-30T05:55:28;14.40;99.90
3602;DHT22;1815;50.950;6.920;2023-09-30T05:57:55;14.50;99.90
3602;DHT22;1815;50.950;6.920;2023-09-30T06:00:21;14.50;99.90
3602;DHT22;1815;50.950;6.920;2023-09-30T06:02:51;14.50;99.90
3602;DHT22;1815;50.950;6.920;2023-09-30T06:05:17;14.60;99.90
3602;DHT22;1815;50.950;6.920;2023-09-30T06:07:47;14.70;99.90
3602;DHT22;1815;50.950;6.920;2023-09-30T06:10:13;14.80;99.90
3602;DHT22;1815;50.950;6.920;2023-09-30T06:12:52;14.80;99.90
3602;DHT22;1815;50.950;6.920;2023-09-30T06:15:20;14.90;99.90
3602;DHT22;1815;50.950;6.920;2023-09-30T06:17:49;15.00;99.90
3602;DHT22;1815;50.950;6.920;2023-09-30T06:20:14;15.10;99.90
3602;DHT22;1815;50.950;6.920;2023-09-30T06:22:46;15.20;99.90
3602;DHT22;1815;50.950;6.920;2023-09-30T06:25:15;15.20;99.90
3602;DHT22;1815;50.950;6.920;2023-09-30T06:27:44;15.30;99.90
3602;DHT22;1815;50.950;6.920;2023-09-30T06:30:11;15.30;99.90
3602;DHT22;1815;50.950;6.920;2023-09-30T06:32:37;15.30;99.90
3602;DHT22;1815;50.950;6.920;2023-09-30T06:35:03;15.30;99.90
3602;DHT22;1815;50.950;6.920;2023-09-30T06:37:32;15.40;99.90
3602;DHT22;1815;50.950;6.920;2023-09-30T06:39:57;15.40;99.90
3602;DHT22;1815;50.950;6.920;2023-09-30T06:42:26;15.40;99.90
3602;DHT22;1815;50.950;6.920;2023-09-30T06:44:53;15.50;99.90
3602;DHT22;1815;50.950;6.920;2023-09-30T06:47:18;15.50;99.90
3602;DHT22;1815;50.950;6.920;2023-09-30T06:49:44;15.50;99.90
3602;DHT22;1815;50.950;6.920;2023-09-30T06:52:11;15.50;99.90
3602;DHT22;1815;50.950;6.920;2023-09-30T06:54:37;15.50;99.90
3602;DHT22;1815;50.950;6.920;2023-09-30T06:57:03;15.50;99.90
3602;DHT22;1815;50.950;6.920;2023-09-30T06:59:29;15.60;99.90
3602;DHT22;1815;50.950;6.920;2023-09-30T07:01:54;15.60;99.90
3602;DHT22;1815;50.950;6.920;2023-09-30T07:04:20;15.70;99.90
3602;DHT22;1815;50.950;6.920;2023-09-30T07:06:47;15.80;99.90
3602;DHT22;1815;50.950;6.920;2023-09-30T07:09:13;15.90;99.90
3602;DHT22;1815;50.950;6.920;2023-09-30T07:11:38;16.00;99.90
3602;DHT22;1815;50.950;6.920;2023-09-30T07:14:04;16.00;99.90
3602;DHT22;1815;50.950;6.920;2023-09-30T07:16:30;16.10;99.90
3602;DHT22;1815;50.950;6.920;2023-09-30T07:18:56;16.20;99.90
3602;DHT22;1815;50.950;6.920;2023-09-30T07:21:21;16.30;99.90
3602;DHT22;1815;50.950;6.920;2023-09-30T07:23:47;16.40;99.90
3602;DHT22;1815;50.950;6.920;2023-09-30T07:26:13;16.50;99.90
3602;DHT22;1815;50.950;6.920;2023-09-30T07:28:43;16.60;99.90
3602;DHT22;1815;50.950;6.920;2023-09-30T07:31:08;16.70;99.90
3602;DHT22;1815;50.950;6.920;2023-09-30T07:33:34;16.90;99.90
3602;DHT22;1815;50.950;6.920;2023-09-30T07:36:01;17.40;99.90
3602;DHT22;1815;50.950;6.920;2023-09-30T07:38:26;18.00;99.90
3602;DHT22;1815;50.950;6.920;2023-09-30T07:40:52;18.80;99.90
3602;DHT22;1815;50.950;6.920;2023-09-30T07:43:17;19.60;99.90
3602;DHT22;1815;50.950;6.920;2023-09-30T07:45:45;20.60;99.90
3602;DHT22;1815;50.950;6.920;2023-09-30T07:48:11;21.60;99.90
3602;DHT22;1815;50.950;6.920;2023-09-30T07:50:38;22.60;99.90
3602;DHT22;1815;50.950;6.920;2023-09-30T07:53:04;23.60;99.90
3602;DHT22;1815;50.950;6.920;2023-09-30T07:55:30;24.50;99.90
3602;DHT22;1815;50.950;6.920;2023-09-30T07:57:56;25.40;99.90
3602;DHT22;1815;50.950;6.920;2023-09-30T08:00:24;26.20;99.90
3602;DHT22;1815;50.950;6.920;2023-09-30T08:02:50;26.80;99.90
3602;DHT22;1815;50.950;6.920;2023-09-30T08:05:16;27.40;99.90
3602;DHT22;1815;50.950;6.920;2023-09-30T08:07:42;27.90;99.90
3602;DHT22;1815;50.950;6.920;2023-09-30T08:10:08;28.30;99.90
3602;DHT22;1815;50.950;6.920;2023-09-30T08:12:39;28.50;99.90
3602;DHT22;1815;50.950;6.920;2023-09-30T08:15:05;28.80;99.90
3602;DHT22;1815;50.950;6.920;2023-09-30T08:17:31;28.90;99.90
3602;DHT22;1815;50.950;6.920;2023-09-30T08:19:59;29.10;99.90
3602;DHT22;1815;50.950;6.920;2023-09-30T08:22:25;29.50;99.90
3602;DHT22;1815;50.950;6.920;2023-09-30T08:24:54;29.90;99.90
3602;DHT22;1815;50.950;6.920;2023-09-30T08:27:19;30.20;99.90
3602;DHT22;1815;50.950;6.920;2023-09-30T08:29:45;30.50;99.90
3602;DHT22;1815;50.950;6.920;2023-09-30T08:32:11;30.90;99.90
3602;DHT22;1815;50.950;6.920;2023-09-30T08:34:37;31.20;99.90
3602;DHT22;1815;50.950;6.920;2023-09-30T08:37:03;31.40;99.90
3602;DHT22;1815;50.950;6.920;2023-09-30T08:39:29;31.80;99.90
3602;DHT22;1815;50.950;6.920;2023-09-30T08:41:55;32.20;99.90
3602;DHT22;1815;50.950;6.920;2023-09-30T08:44:22;32.60;99.90
3602;DHT22;1815;50.950;6.920;2023-09-30T08:46:48;33.10;99.90
3602;DHT22;1815;50.950;6.920;2023-09-30T08:49:15;33.10;99.90
3602;DHT22;1815;50.950;6.920;2023-09-30T08:51:41;33.20;99.90
3602;DHT22;1815;50.950;6.920;2023-09-30T08:54:06;33.30;99.90
3602;DHT22;1815;50.950;6.920;2023-09-30T08:56:32;33.30;99.20
3602;DHT22;1815;50.950;6.920;2023-09-30T08:59:00;33.40;98.40
3602;DHT22;1815;50.950;6.920;2023-09-30T09:01:30;33.30;97.80
3602;DHT22;1815;50.950;6.920;2023-09-30T09:03:57;33.40;97.90
3602;DHT22;1815;50.950;6.920;2023-09-30T09:06:24;33.70;97.50
3602;DHT22;1815;50.950;6.920;2023-09-30T09:08:50;34.00;97.30
3602;DHT22;1815;50.950;6.920;2023-09-30T09:11:17;34.00;95.30
3602;DHT22;1815;50.950;6.920;2023-09-30T09:13:51;34.00;95.30
3602;DHT22;1815;50.950;6.920;2023-09-30T09:16:22;34.20;90.90
3602;DHT22;1815;50.950;6.920;2023-09-30T09:18:49;34.30;93.30
3602;DHT22;1815;50.950;6.920;2023-09-30T09:21:22;34.20;88.10
3602;DHT22;1815;50.950;6.920;2023-09-30T09:23:50;34.00;88.70
3602;DHT22;1815;50.950;6.920;2023-09-30T09:26:26;33.60;85.20
3602;DHT22;1815;50.950;6.920;2023-09-30T09:28:59;32.90;83.20
3602;DHT22;1815;50.950;6.920;2023-09-30T09:31:32;32.50;82.50
3602;DHT22;1815;50.950;6.920;2023-09-30T09:34:00;32.10;82.00
3602;DHT22;1815;50.950;6.920;2023-09-30T09:36:43;31.70;83.40
3602;DHT22;1815;50.950;6.920;2023-09-30T09:39:10;31.50;83.10
3602;DHT22;1815;50.950;6.920;2023-09-30T09:41:53;31.40;84.30
3602;DHT22;1815;50.950;6.920;2023-09-30T09:44:20;31.60;85.20
3602;DHT22;1815;50.950;6.920;2023-09-30T09:46:50;31.60;86.40
3602;DHT22;1815;50.950;6.920;2023-09-30T09:49:17;31.80;87.50
3602;DHT22;1815;50.950;6.920;2023-09-30T09:51:47;31.90;87.00
3602;DHT22;1815;50.950;6.920;2023-09-30T09:54:14;32.10;85.00
3602;DHT22;1815;50.950;6.920;2023-09-30T09:56:44;32.30;85.30
3602;DHT22;1815;50.950;6.920;2023-09-30T09:59:12;32.00;81.00
3602;DHT22;1815;50.950;6.920;2023-09-30T10:01:39;31.60;79.90
3602;DHT22;1815;50.950;6.920;2023-09-30T10:04:06;31.20;81.70
3602;DHT22;1815;50.950;6.920;2023-09-30T10:06:33;31.30;83.10
3602;DHT22;1815;50.950;6.920;2023-09-30T10:09:09;31.20;82.70
3602;DHT22;1815;50.950;6.920;2023-09-30T10:11:36;31.40;82.80
3602;DHT22;1815;50.950;6.920;2023-09-30T10:14:02;31.40;82.20
3602;DHT22;1815;50.950;6.920;2023-09-30T10:19:21;30.70;78.60
3602;DHT22;1815;50.950;6.920;2023-09-30T10:24:45;30.20;75.30
3602;DHT22;1815;50.950;6.920;2023-09-30T10:40:47;27.80;80.60
3602;DHT22;1815;50.950;6.920;2023-09-30T10:43:36;27.30;80.40
3602;DHT22;1815;50.950;6.920;2023-09-30T10:48:51;26.50;82.30
3602;DHT22;1815;50.950;6.920;2023-09-30T10:51:18;26.20;83.30
3602;DHT22;1815;50.950;6.920;2023-09-30T10:53:48;25.90;83.80
3602;DHT22;1815;50.950;6.920;2023-09-30T10:56:15;25.70;84.90
3602;DHT22;1815;50.950;6.920;2023-09-30T11:01:06;25.40;86.40
3602;DHT22;1815;50.950;6.920;2023-09-30T11:03:33;25.30;87.00
3602;DHT22;1815;50.950;6.920;2023-09-30T11:05:58;25.10;86.90
3602;DHT22;1815;50.950;6.920;2023-09-30T11:08:28;25.00;87.30
3602;DHT22;1815;50.950;6.920;2023-09-30T11:10:55;24.90;87.10
3602;DHT22;1815;50.950;6.920;2023-09-30T11:13:22;24.80;87.70
3602;DHT22;1815;50.950;6.920;2023-09-30T11:16:00;24.70;88.20
3602;DHT22;1815;50.950;6.920;2023-09-30T11:18:26;24.60;88.60
3602;DHT22;1815;50.950;6.920;2023-09-30T11:21:10;24.60;90.20
3602;DHT22;1815;50.950;6.920;2023-09-30T11:23:41;24.70;90.00
3602;DHT22;1815;50.950;6.920;2023-09-30T11:26:07;24.80;90.10
3602;DHT22;1815;50.950;6.920;2023-09-30T11:28:38;24.80;90.10
3602;DHT22;1815;50.950;6.920;2023-09-30T11:31:11;24.90;90.20
3602;DHT22;1815;50.950;6.920;2023-09-30T11:33:54;25.00;91.00
3602;DHT22;1815;50.950;6.920;2023-09-30T11:36:22;25.30;91.90
3602;DHT22;1815;50.950;6.920;2023-09-30T11:38:49;25.80;93.40
3602;DHT22;1815;50.950;6.920;2023-09-30T11:41:16;26.30;93.80
3602;DHT22;1815;50.950;6.920;2023-09-30T11:44:03;26.80;94.00
3602;DHT22;1815;50.950;6.920;2023-09-30T11:46:54;27.40;93.00
3602;DHT22;1815;50.950;6.920;2023-09-30T11:52:06;28.50;91.50
3602;DHT22;1815;50.950;6.920;2023-09-30T11:54:44;28.80;90.80
3602;DHT22;1815;50.950;6.920;2023-09-30T11:57:11;28.80;87.30
3602;DHT22;1815;50.950;6.920;2023-09-30T11:59:38;28.70;85.70
3602;DHT22;1815;50.950;6.920;2023-09-30T12:02:08;28.50;83.90
3602;DHT22;1815;50.950;6.920;2023-09-30T12:04:37;28.20;83.10
3602;DHT22;1815;50.950;6.920;2023-09-30T12:07:03;28.00;81.70
3602;DHT22;1815;50.950;6.920;2023-09-30T12:09:29;27.60;81.00
3602;DHT22;1815;50.950;6.920;2023-09-30T12:11:56;27.30;80.60
3602;DHT22;1815;50.950;6.920;2023-09-30T12:14:24;26.90;80.00
3602;DHT22;1815;50.950;6.920;2023-09-30T12:16:50;26.50;79.60
3602;DHT22;1815;50.950;6.920;2023-09-30T12:19:19;26.10;79.70
3602;DHT22;1815;50.950;6.920;2023-09-30T12:21:46;25.80;79.70
3602;DHT22;1815;50.950;6.920;2023-09-30T12:24:17;25.40;80.30
3602;DHT22;1815;50.950;6.920;2023-09-30T12:26:49;25.10;80.20
3602;DHT22;1815;50.950;6.920;2023-09-30T12:29:16;24.80;80.20
3602;DHT22;1815;50.950;6.920;2023-09-30T12:31:46;24.50;81.00
3602;DHT22;1815;50.950;6.920;2023-09-30T12:34:13;24.30;81.70
3602;DHT22;1815;50.950;6.920;2023-09-30T12:36:39;24.10;82.80
3602;DHT22;1815;50.950;6.920;2023-09-30T12:39:09;24.00;84.40
3602;DHT22;1815;50.950;6.920;2023-09-30T12:41:38;24.00;85.50
3602;DHT22;1815;50.950;6.920;2023-09-30T12:44:06;24.00;86.00
3602;DHT22;1815;50.950;6.920;2023-09-30T12:46:31;24.00;86.20
3602;DHT22;1815;50.950;6.920;2023-09-30T12:49:03;24.00;86.40
3602;DHT22;1815;50.950;6.920;2023-09-30T12:51:30;24.10;87.00
3602;DHT22;1815;50.950;6.920;2023-09-30T12:53:56;24.20;87.00
3602;DHT22;1815;50.950;6.920;2023-09-30T12:56:23;24.20;87.10
3602;DHT22;1815;50.950;6.920;2023-09-30T12:58:49;24.20;86.40
3602;DHT22;1815;50.950;6.920;2023-09-30T13:01:15;24.10;85.70
3602;DHT22;1815;50.950;6.920;2023-09-30T13:03:46;24.00;85.60
3602;DHT22;1815;50.950;6.920;2023-09-30T13:06:12;24.00;85.60
3602;DHT22;1815;50.950;6.920;2023-09-30T13:08:38;23.90;85.40
3602;DHT22;1815;50.950;6.920;2023-09-30T13:11:04;23.90;85.30
3602;DHT22;1815;50.950;6.920;2023-09-30T13:13:31;23.80;84.20
3602;DHT22;1815;50.950;6.920;2023-09-30T13:15:59;23.70;84.10
3602;DHT22;1815;50.950;6.920;2023-09-30T13:18:25;23.60;84.20
3602;DHT22;1815;50.950;6.920;2023-09-30T13:20:51;23.40;84.40
3602;DHT22;1815;50.950;6.920;2023-09-30T13:23:18;23.40;84.60
3602;DHT22;1815;50.950;6.920;2023-09-30T13:25:44;23.30;85.00
3602;DHT22;1815;50.950;6.920;2023-09-30T13:28:10;23.20;85.00
3602;DHT22;1815;50.950;6.920;2023-09-30T13:30:37;23.20;85.30
3602;DHT22;1815;50.950;6.920;2023-09-30T13:33:03;23.20;85.50
3602;DHT22;1815;50.950;6.920;2023-09-30T13:35:29;23.20;85.90
3602;DHT22;1815;50.950;6.920;2023-09-30T13:37:54;23.10;86.20
3602;DHT22;1815;50.950;6.920;2023-09-30T13:40:20;23.20;86.90
3602;DHT22;1815;50.950;6.920;2023-09-30T13:42:46;23.20;87.00
3602;DHT22;1815;50.950;6.920;2023-09-30T13:45:12;23.30;87.60
3602;DHT22;1815;50.950;6.920;2023-09-30T13:47:38;23.30;86.80
3602;DHT22;1815;50.950;6.920;2023-09-30T13:50:05;23.40;87.10
3602;DHT22;1815;50.950;6.920;2023-09-30T13:52:33;23.40;86.90
3602;DHT22;1815;50.950;6.920;2023-09-30T13:54:59;23.40;86.70
3602;DHT22;1815;50.950;6.920;2023-09-30T13:57:25;23.40;86.60
3602;DHT22;1815;50.950;6.920;2023-09-30T13:59:51;23.30;85.80
3602;DHT22;1815;50.950;6.920;2023-09-30T14:02:16;23.20;86.40
3602;DHT22;1815;50.950;6.920;2023-09-30T14:04:43;23.30;86.60
3602;DHT22;1815;50.950;6.920;2023-09-30T14:07:09;23.30;86.70
3602;DHT22;1815;50.950;6.920;2023-09-30T14:09:35;23.30;86.70
3602;DHT22;1815;50.950;6.920;2023-09-30T14:12:01;23.30;86.50
3602;DHT22;1815;50.950;6.920;2023-09-30T14:14:31;23.30;86.30
3602;DHT22;1815;50.950;6.920;2023-09-30T14:16:57;23.30;86.20
3602;DHT22;1815;50.950;6.920;2023-09-30T14:19:23;23.30;86.30
3602;DHT22;1815;50.950;6.920;2023-09-30T14:21:49;23.30;86.30
3602;DHT22;1815;50.950;6.920;2023-09-30T14:24:15;23.30;86.20
3602;DHT22;1815;50.950;6.920;2023-09-30T14:26:41;23.30;86.30
3602;DHT22;1815;50.950;6.920;2023-09-30T14:29:06;23.30;86.20
3602;DHT22;1815;50.950;6.920;2023-09-30T14:31:32;23.30;86.00
3602;DHT22;1815;50.950;6.920;2023-09-30T14:33:57;23.30;86.00
3602;DHT22;1815;50.950;6.920;2023-09-30T14:36:23;23.20;86.00
3602;DHT22;1815;50.950;6.920;2023-09-30T14:38:49;23.20;86.00
3602;DHT22;1815;50.950;6.920;2023-09-30T14:41:15;23.20;86.40
3602;DHT22;1815;50.950;6.920;2023-09-30T14:43:41;23.10;87.00
3602;DHT22;1815;50.950;6.920;2023-09-30T14:46:07;23.10;86.40
3602;DHT22;1815;50.950;6.920;2023-09-30T14:48:33;23.10;86.50
3602;DHT22;1815;50.950;6.920;2023-09-30T14:51:00;23.00;86.40
3602;DHT22;1815;50.950;6.920;2023-09-30T14:53:26;23.00;87.20
3602;DHT22;1815;50.950;6.920;2023-09-30T14:55:52;22.90;86.20
3602;DHT22;1815;50.950;6.920;2023-09-30T14:58:17;22.90;86.60
3602;DHT22;1815;50.950;6.920;2023-09-30T15:00:44;22.90;86.60
3602;DHT22;1815;50.950;6.920;2023-09-30T15:03:20;22.90;86.90
3602;DHT22;1815;50.950;6.920;2023-09-30T15:05:57;22.80;86.30
3602;DHT22;1815;50.950;6.920;2023-09-30T15:08:23;22.80;86.20
3602;DHT22;1815;50.950;6.920;2023-09-30T15:10:49;22.80;87.10
3602;DHT22;1815;50.950;6.920;2023-09-30T15:13:15;22.70;87.00
3602;DHT22;1815;50.950;6.920;2023-09-30T15:15:41;22.70;86.60
3602;DHT22;1815;50.950;6.920;2023-09-30T15:18:06;22.60;85.80
3602;DHT22;1815;50.950;6.920;2023-09-30T15:20:38;22.50;85.30
3602;DHT22;1815;50.950;6.920;2023-09-30T15:23:04;22.40;85.20
3602;DHT22;1815;50.950;6.920;2023-09-30T15:25:30;22.40;85.70
3602;DHT22;1815;50.950;6.920;2023-09-30T15:27:55;22.30;85.90
3602;DHT22;1815;50.950;6.920;2023-09-30T15:30:21;22.30;86.20
3602;DHT22;1815;50.950;6.920;2023-09-30T15:32:48;22.20;86.30
3602;DHT22;1815;50.950;6.920;2023-09-30T15:35:14;22.20;86.60
3602;DHT22;1815;50.950;6.920;2023-09-30T15:37:40;22.20;87.20
3602;DHT22;1815;50.950;6.920;2023-09-30T15:40:09;22.10;87.50
3602;DHT22;1815;50.950;6.920;2023-09-30T15:42:35;22.10;87.20
3602;DHT22;1815;50.950;6.920;2023-09-30T15:45:00;22.00;86.80
3602;DHT22;1815;50.950;6.920;2023-09-30T15:47:27;21.90;86.90
3602;DHT22;1815;50.950;6.920;2023-09-30T15:49:59;21.80;87.30
3602;DHT22;1815;50.950;6.920;2023-09-30T15:52:25;21.80;88.00
3602;DHT22;1815;50.950;6.920;2023-09-30T15:54:50;21.80;88.70
3602;DHT22;1815;50.950;6.920;2023-09-30T15:57:18;21.80;89.00
3602;DHT22;1815;50.950;6.920;2023-09-30T15:59:43;21.80;89.50
3602;DHT22;1815;50.950;6.920;2023-09-30T16:02:09;21.80;89.90
3602;DHT22;1815;50.950;6.920;2023-09-30T16:04:35;21.70;90.00
3602;DHT22;1815;50.950;6.920;2023-09-30T16:07:01;21.70;90.00
3602;DHT22;1815;50.950;6.920;2023-09-30T16:09:27;21.70;90.10
3602;DHT22;1815;50.950;6.920;2023-09-30T16:11:52;21.70;90.10
3602;DHT22;1815;50.950;6.920;2023-09-30T16:14:18;21.60;89.80
3602;DHT22;1815;50.950;6.920;2023-09-30T16:16:46;21.50;89.60
3602;DHT22;1815;50.950;6.920;2023-09-30T16:19:12;21.40;89.60
3602;DHT22;1815;50.950;6.920;2023-09-30T16:21:37;21.30;89.50
3602;DHT22;1815;50.950;6.920;2023-09-30T16:24:03;21.30;90.00
3602;DHT22;1815;50.950;6.920;2023-09-30T16:26:29;21.30;90.00
3602;DHT22;1815;50.950;6.920;2023-09-30T16:28:56;21.20;90.10